createdAt,value
2023-03-26T00:01:23.571Z,2.75
2023-03-26T00:03:53.693Z,3.00
2023-03-26T00:06:22.993Z,3.10
2023-03-26T00:08:51.090Z,2.73
2023-03-26T00:11:19.626Z,2.92
2023-03-26T00:13:47.658Z,3.00
2023-03-26T00:16:17.390Z,3.45
2023-03-26T00:18:44.782Z,4.82
2023-03-26T00:21:14.906Z,3.07
2023-03-26T00:23:43.099Z,2.70
2023-03-26T00:26:10.843Z,3.55
2023-03-26T00:28:40.424Z,3.95
2023-03-26T00:31:13.145Z,4.03
2023-03-26T00:33:41.403Z,2.80
2023-03-26T00:36:11.961Z,2.80
2023-03-26T00:38:39.668Z,4.07
2023-03-26T00:41:18.036Z,4.03
2023-03-26T00:43:46.702Z,4.18
2023-03-26T00:46:14.134Z,4.20
2023-03-26T00:48:45.778Z,3.28
2023-03-26T00:51:15.874Z,4.03
2023-03-26T00:53:45.557Z,4.15
2023-03-26T00:56:13.239Z,5.18
2023-03-26T00:58:40.615Z,4.43
2023-03-26T01:01:14.814Z,3.95
2023-03-26T01:03:50.348Z,5.28
2023-03-26T01:06:28.200Z,4.70
2023-03-26T01:09:00.479Z,3.78
2023-03-26T01:11:31.311Z,3.83
2023-03-26T01:14:02.684Z,5.00
2023-03-26T01:16:41.584Z,5.38
2023-03-26T01:19:21.173Z,5.43
2023-03-26T01:21:48.570Z,5.07
2023-03-26T01:24:16.182Z,4.47
2023-03-26T01:27:01.186Z,5.32
2023-03-26T01:29:53.148Z,5.10
2023-03-26T01:32:44.283Z,6.43
2023-03-26T01:35:29.264Z,5.38
2023-03-26T01:38:25.537Z,5.23
2023-03-26T01:41:29.268Z,4.85
2023-03-26T01:44:28.859Z,5.05
2023-03-26T01:46:56.646Z,5.18
2023-03-26T01:49:23.895Z,5.35
2023-03-26T01:51:51.566Z,4.90
2023-03-26T01:54:22.524Z,5.50
2023-03-26T01:56:57.078Z,6.07
2023-03-26T01:59:23.875Z,5.60
2023-03-26T02:02:14.994Z,5.63
2023-03-26T02:04:53.432Z,5.43
2023-03-26T02:08:00.177Z,6.25
2023-03-26T02:10:33.697Z,5.45
2023-03-26T02:13:01.132Z,6.43
2023-03-26T02:15:28.425Z,6.20
2023-03-26T02:17:55.676Z,4.57
2023-03-26T02:20:22.807Z,5.10
2023-03-26T02:22:50.060Z,5.15
2023-03-26T02:25:21.085Z,6.93
2023-03-26T02:27:51.276Z,5.85
2023-03-26T02:30:29.718Z,5.27
2023-03-26T02:33:00.155Z,5.90
2023-03-26T02:35:34.671Z,4.85
2023-03-26T02:38:03.350Z,4.50
2023-03-26T02:40:30.595Z,4.60
2023-03-26T02:42:58.686Z,4.90
2023-03-26T02:45:26.633Z,5.85
2023-03-26T02:48:15.224Z,5.50
2023-03-26T02:50:50.354Z,5.32
2023-03-26T02:53:32.914Z,6.75
2023-03-26T02:56:20.586Z,6.10
2023-03-26T02:59:03.872Z,5.90
2023-03-26T03:01:35.210Z,6.97
2023-03-26T03:04:04.174Z,6.28
2023-03-26T03:06:35.771Z,6.25
2023-03-26T03:09:03.792Z,4.97
2023-03-26T03:11:38.910Z,6.47
2023-03-26T03:14:06.718Z,6.00
2023-03-26T03:16:34.521Z,6.00
2023-03-26T03:19:10.279Z,6.18
2023-03-26T03:21:38.744Z,6.10
2023-03-26T03:24:07.404Z,6.55
2023-03-26T03:26:42.307Z,6.70
2023-03-26T03:29:18.796Z,6.82
2023-03-26T03:31:46.489Z,6.30
2023-03-26T03:34:28.569Z,6.93
2023-03-26T03:36:56.059Z,6.68
2023-03-26T03:39:35.222Z,6.72
2023-03-26T03:42:02.761Z,6.72
2023-03-26T03:44:30.208Z,6.68
2023-03-26T03:46:58.006Z,6.67
2023-03-26T03:49:24.779Z,6.68
2023-03-26T03:51:52.002Z,6.95
2023-03-26T03:54:34.181Z,8.13
2023-03-26T03:57:18.896Z,7.47
2023-03-26T03:59:58.256Z,6.07
2023-03-26T04:02:30.551Z,7.40
2023-03-26T04:05:03.212Z,6.78
2023-03-26T04:07:31.213Z,8.40
2023-03-26T04:10:09.132Z,8.48
2023-03-26T04:12:54.673Z,8.33
2023-03-26T04:15:36.905Z,8.48
2023-03-26T04:18:04.644Z,8.15
2023-03-26T04:20:32.068Z,7.55
2023-03-26T04:23:00.006Z,8.38
2023-03-26T04:25:30.441Z,8.10
2023-03-26T04:28:08.518Z,9.13
2023-03-26T04:31:00.796Z,7.80
2023-03-26T04:33:36.824Z,8.25
2023-03-26T04:36:05.361Z,5.45
2023-03-26T04:38:42.097Z,6.93
2023-03-26T04:41:13.059Z,7.90
2023-03-26T04:43:56.792Z,7.15
2023-03-26T04:46:55.410Z,7.50
2023-03-26T04:49:37.915Z,7.20
2023-03-26T04:52:05.670Z,6.47
2023-03-26T04:54:51.292Z,9.02
2023-03-26T04:57:30.917Z,7.68
2023-03-26T05:00:15.973Z,7.38
2023-03-26T05:02:46.010Z,7.13
2023-03-26T05:05:13.720Z,7.87
2023-03-26T05:07:42.283Z,7.78
2023-03-26T05:10:15.145Z,6.95
2023-03-26T05:12:49.390Z,8.23
2023-03-26T05:15:24.169Z,7.38
2023-03-26T05:17:57.207Z,6.43
2023-03-26T05:20:30.454Z,7.03
2023-03-26T05:22:58.172Z,7.57
2023-03-26T05:25:37.602Z,6.35
2023-03-26T05:28:11.685Z,7.60
2023-03-26T05:30:47.801Z,8.53
2023-03-26T05:33:16.344Z,7.28
2023-03-26T05:36:03.445Z,7.80
2023-03-26T05:38:32.176Z,8.18
2023-03-26T05:41:01.960Z,7.80
2023-03-26T05:43:30.281Z,7.60
2023-03-26T05:46:16.607Z,6.93
2023-03-26T05:48:44.220Z,6.25
2023-03-26T05:51:12.628Z,7.40
2023-03-26T05:53:43.297Z,8.27
2023-03-26T05:56:16.442Z,6.23
2023-03-26T05:59:02.160Z,6.82
2023-03-26T06:01:48.180Z,6.72
2023-03-26T06:04:28.653Z,14.50
2023-03-26T06:07:22.068Z,8.98
2023-03-26T06:10:05.103Z,6.47
2023-03-26T06:12:32.126Z,6.57
2023-03-26T06:14:59.383Z,8.13
2023-03-26T06:17:40.619Z,6.88
2023-03-26T06:20:17.964Z,6.72
2023-03-26T06:22:47.669Z,7.20
2023-03-26T06:25:24.533Z,7.40
2023-03-26T06:28:03.960Z,7.97
2023-03-26T06:30:53.878Z,7.03
2023-03-26T06:33:36.843Z,8.55
2023-03-26T06:36:04.420Z,6.43
2023-03-26T06:38:31.346Z,8.05
2023-03-26T06:41:05.590Z,7.78
2023-03-26T06:43:52.939Z,6.38
2023-03-26T06:46:38.581Z,7.30
2023-03-26T06:49:45.437Z,7.93
2023-03-26T06:52:19.684Z,7.43
2023-03-26T06:55:22.508Z,8.80
2023-03-26T06:58:08.442Z,7.70
2023-03-26T07:01:01.768Z,8.25
2023-03-26T07:03:47.430Z,8.40
2023-03-26T07:06:33.359Z,6.90
2023-03-26T07:09:19.224Z,10.25
2023-03-26T07:11:58.555Z,8.55
2023-03-26T07:14:48.756Z,6.68
2023-03-26T07:17:47.780Z,8.07
2023-03-26T07:20:20.513Z,6.45
2023-03-26T07:22:48.346Z,6.18
2023-03-26T07:25:18.679Z,6.60
2023-03-26T07:28:34.089Z,6.50
2023-03-26T07:31:30.641Z,6.83
2023-03-26T07:34:46.163Z,7.43
2023-03-26T07:37:33.972Z,7.10
2023-03-26T07:40:31.939Z,6.95
2023-03-26T07:43:26.352Z,10.93
2023-03-26T07:46:24.169Z,6.07
2023-03-26T07:49:12.712Z,7.47
2023-03-26T07:52:01.263Z,6.38
2023-03-26T07:54:48.505Z,6.93
2023-03-26T07:58:02.641Z,6.15
2023-03-26T08:00:56.481Z,5.50
2023-03-26T08:03:31.572Z,6.38
2023-03-26T08:06:36.313Z,5.82
2023-03-26T08:09:40.478Z,7.03
2023-03-26T08:12:50.510Z,5.72
2023-03-26T08:15:45.749Z,7.47
2023-03-26T08:18:31.212Z,6.10
2023-03-26T08:20:58.460Z,8.00
2023-03-26T08:23:50.448Z,7.85
2023-03-26T08:26:30.621Z,8.20
2023-03-26T08:29:08.647Z,7.47
2023-03-26T08:31:39.001Z,7.60
2023-03-26T08:34:09.455Z,7.88
2023-03-26T08:36:37.846Z,9.00
2023-03-26T08:39:05.615Z,9.68
2023-03-26T08:41:38.451Z,8.93
2023-03-26T08:44:49.050Z,8.38
2023-03-26T08:47:55.642Z,8.18
2023-03-26T08:50:31.414Z,8.35
2023-03-26T08:52:58.637Z,8.32
2023-03-26T08:55:46.097Z,8.33
2023-03-26T08:58:43.514Z,8.45
2023-03-26T09:01:41.488Z,8.25
2023-03-26T09:04:20.323Z,7.88
2023-03-26T09:07:24.576Z,8.68
2023-03-26T09:09:52.793Z,8.30
2023-03-26T09:12:25.722Z,7.85
2023-03-26T09:15:20.348Z,9.10
2023-03-26T09:18:23.884Z,9.65
2023-03-26T09:21:09.313Z,9.32
2023-03-26T09:23:45.761Z,9.20
2023-03-26T09:26:36.447Z,9.40
2023-03-26T09:29:06.139Z,9.15
2023-03-26T09:32:11.831Z,10.23
2023-03-26T09:34:44.326Z,8.90
2023-03-26T09:37:24.155Z,11.27
2023-03-26T09:39:51.449Z,9.05
2023-03-26T09:42:30.846Z,9.52
2023-03-26T09:45:25.600Z,8.98
2023-03-26T09:48:01.216Z,14.55
2023-03-26T09:50:56.339Z,8.80
2023-03-26T09:53:42.085Z,8.05
2023-03-26T09:56:39.924Z,8.55
2023-03-26T09:59:27.259Z,8.38
2023-03-26T10:01:59.820Z,8.02
2023-03-26T10:04:51.313Z,8.97
2023-03-26T10:07:35.916Z,10.80
2023-03-26T10:10:23.424Z,11.63
2023-03-26T10:13:39.021Z,13.35
2023-03-26T10:16:39.478Z,12.15
2023-03-26T10:19:19.863Z,11.40
2023-03-26T10:22:20.087Z,10.50
2023-03-26T10:25:05.796Z,11.77
2023-03-26T10:28:02.232Z,10.80
2023-03-26T10:30:51.016Z,10.38
2023-03-26T10:33:34.943Z,11.67
2023-03-26T10:36:13.427Z,10.63
2023-03-26T10:39:01.498Z,12.45
2023-03-26T10:41:38.694Z,10.43
2023-03-26T10:44:44.948Z,10.27
2023-03-26T10:47:35.102Z,9.80
2023-03-26T10:50:23.093Z,8.68
2023-03-26T10:53:02.308Z,8.57
2023-03-26T10:55:34.151Z,8.60
2023-03-26T10:58:24.992Z,7.80
2023-03-26T11:01:01.824Z,9.17
2023-03-26T11:03:54.247Z,10.63
2023-03-26T11:06:26.910Z,8.15
2023-03-26T11:09:01.905Z,7.72
2023-03-26T11:12:27.168Z,9.70
2023-03-26T11:15:07.560Z,7.53
2023-03-26T11:17:46.429Z,8.18
2023-03-26T11:20:35.201Z,6.68
2023-03-26T11:23:19.984Z,6.60
2023-03-26T11:26:23.751Z,6.50
2023-03-26T11:29:32.590Z,5.50
2023-03-26T11:32:10.697Z,7.22
2023-03-26T11:34:46.995Z,5.68
2023-03-26T11:37:39.935Z,6.47
2023-03-26T11:40:24.070Z,6.65
2023-03-26T11:42:56.812Z,6.70
2023-03-26T11:45:27.310Z,6.35
2023-03-26T11:48:02.252Z,5.95
2023-03-26T11:50:32.913Z,6.10
2023-03-26T11:53:10.500Z,4.90
2023-03-26T11:55:41.885Z,7.40
2023-03-26T11:58:26.054Z,5.45
2023-03-26T12:00:54.721Z,6.05
2023-03-26T12:03:22.695Z,4.72
2023-03-26T12:05:53.588Z,6.57
2023-03-26T12:08:37.877Z,3.70
2023-03-26T12:11:11.654Z,6.85
2023-03-26T12:13:44.790Z,7.03
2023-03-26T12:16:15.510Z,5.53
2023-03-26T12:18:44.588Z,7.03
2023-03-26T12:21:19.678Z,8.17
2023-03-26T12:23:58.587Z,5.30
2023-03-26T12:26:48.975Z,7.45
2023-03-26T12:29:18.744Z,5.65
2023-03-26T12:31:54.302Z,5.32
2023-03-26T12:34:23.932Z,6.03
2023-03-26T12:36:56.655Z,6.78
2023-03-26T12:40:09.351Z,4.90
2023-03-26T12:44:50.125Z,4.75
2023-03-26T12:45:16.179Z,5.45
2023-03-26T12:47:58.828Z,4.27
2023-03-26T12:51:02.048Z,8.05
2023-03-26T12:54:06.120Z,5.93
2023-03-26T12:57:11.841Z,5.00
2023-03-26T13:00:10.756Z,5.78
2023-03-26T13:03:15.319Z,6.77
2023-03-26T13:05:55.805Z,5.35
2023-03-26T13:08:31.108Z,8.90
2023-03-26T13:11:35.106Z,6.07
2023-03-26T13:14:08.497Z,4.80
2023-03-26T13:16:35.746Z,7.87
2023-03-26T13:19:17.325Z,3.67
2023-03-26T13:22:13.704Z,4.25
2023-03-26T13:25:15.483Z,5.22
2023-03-26T13:28:08.002Z,5.00
2023-03-26T13:30:46.478Z,4.13
2023-03-26T13:33:14.067Z,4.78
2023-03-26T13:36:23.965Z,2.90
2023-03-26T13:39:08.080Z,4.55
2023-03-26T13:41:47.170Z,3.85
2023-03-26T13:44:19.734Z,5.10
2023-03-26T13:46:51.956Z,4.03
2023-03-26T13:49:40.732Z,4.15
2023-03-26T13:52:34.642Z,3.38
2023-03-26T13:55:25.741Z,3.17
2023-03-26T13:58:06.099Z,13.93
2023-03-26T14:01:12.369Z,4.70
2023-03-26T14:04:16.001Z,3.05
2023-03-26T14:06:57.449Z,8.00
2023-03-26T14:09:25.009Z,6.28
2023-03-26T14:11:52.196Z,4.87
2023-03-26T14:14:27.718Z,3.70
2023-03-26T14:16:59.919Z,5.47
2023-03-26T14:19:51.469Z,3.90
2023-03-26T14:22:56.576Z,2.95
2023-03-26T14:26:01.139Z,3.93
2023-03-26T14:28:34.176Z,3.58
2023-03-26T14:31:03.967Z,3.03
2023-03-26T14:33:53.782Z,3.28
2023-03-26T14:36:48.180Z,3.15
2023-03-26T14:39:15.922Z,4.63
2023-03-26T14:41:56.554Z,4.68
2023-03-26T14:44:51.213Z,3.35
2023-03-26T14:47:21.726Z,2.70
2023-03-26T14:49:51.900Z,3.35
2023-03-26T14:52:29.369Z,3.50
2023-03-26T14:55:01.576Z,2.95
2023-03-26T14:58:05.941Z,8.30
2023-03-26T15:00:50.962Z,3.03
2023-03-26T15:03:56.076Z,2.42
2023-03-26T15:06:34.739Z,3.00
2023-03-26T15:09:19.638Z,2.80
2023-03-26T15:11:46.953Z,2.92
2023-03-26T15:14:31.820Z,3.08
2023-03-26T15:17:04.555Z,3.22
2023-03-26T15:20:26.070Z,2.90
2023-03-26T15:23:14.617Z,3.10
2023-03-26T15:26:18.855Z,2.85
2023-03-26T15:28:54.682Z,2.72
2023-03-26T15:31:47.572Z,3.35
2023-03-26T15:34:30.430Z,3.43
2023-03-26T15:37:35.492Z,3.55
2023-03-26T15:40:30.713Z,6.63
2023-03-26T15:43:14.112Z,3.70
2023-03-26T15:45:48.053Z,3.65
2023-03-26T15:48:43.615Z,3.53
2023-03-26T15:51:29.406Z,3.90
2023-03-26T15:53:56.655Z,3.50
2023-03-26T15:56:44.021Z,3.20
2023-03-26T15:59:13.347Z,3.10
2023-03-26T16:02:04.482Z,3.17
2023-03-26T16:04:50.415Z,3.15
2023-03-26T16:07:30.374Z,2.95
2023-03-26T16:10:28.463Z,3.33
2023-03-26T16:13:19.397Z,3.17
2023-03-26T16:16:11.503Z,2.70
2023-03-26T16:19:19.338Z,2.78
2023-03-26T16:21:57.680Z,2.80
2023-03-26T16:24:31.309Z,3.17
2023-03-26T16:27:15.230Z,3.88
2023-03-26T16:30:00.185Z,3.20
2023-03-26T16:32:30.970Z,4.22
2023-03-26T16:35:01.994Z,3.03
2023-03-26T16:37:42.868Z,2.70
2023-03-26T16:40:27.094Z,3.20
2023-03-26T16:43:10.336Z,2.40
2023-03-26T16:45:52.929Z,6.10
2023-03-26T16:48:39.124Z,5.93
2023-03-26T16:51:27.574Z,4.78
2023-03-26T16:54:04.287Z,5.65
2023-03-26T16:56:42.382Z,2.67
2023-03-26T16:59:41.556Z,3.00
2023-03-26T17:02:52.217Z,3.67
2023-03-26T17:05:21.218Z,7.85
2023-03-26T17:08:09.885Z,4.28
2023-03-26T17:10:37.295Z,7.00
2023-03-26T17:13:31.054Z,4.45
2023-03-26T17:15:57.823Z,3.65
2023-03-26T17:18:56.416Z,4.68
2023-03-26T17:21:54.093Z,3.25
2023-03-26T17:24:27.801Z,10.07
2023-03-26T17:27:35.926Z,3.65
2023-03-26T17:30:40.215Z,2.90
2023-03-26T17:33:29.413Z,4.40
2023-03-26T17:36:11.506Z,3.78
2023-03-26T17:38:45.496Z,3.13
2023-03-26T17:41:15.858Z,6.68
2023-03-26T17:43:51.305Z,3.42
2023-03-26T17:46:41.286Z,4.50
2023-03-26T17:49:24.551Z,5.68
2023-03-26T17:52:18.199Z,7.03
2023-03-26T17:54:50.471Z,4.50
2023-03-26T17:57:54.277Z,5.60
2023-03-26T18:00:31.660Z,7.05
2023-03-26T18:03:11.351Z,3.60
2023-03-26T18:05:39.481Z,3.40
2023-03-26T18:08:19.602Z,4.40
2023-03-26T18:11:31.130Z,4.80
2023-03-26T18:14:41.212Z,2.20
2023-03-26T18:17:08.601Z,2.58
2023-03-26T18:19:53.245Z,10.70
2023-03-26T18:22:25.269Z,4.68
2023-03-26T18:24:56.131Z,3.95
2023-03-26T18:27:23.683Z,2.88
2023-03-26T18:29:56.960Z,3.15
2023-03-26T18:32:33.713Z,2.73
2023-03-26T18:35:22.225Z,3.38
2023-03-26T18:37:53.363Z,3.28
2023-03-26T18:40:22.572Z,2.50
2023-03-26T18:42:52.426Z,4.22
2023-03-26T18:45:38.988Z,3.77
2023-03-26T18:48:14.190Z,10.27
2023-03-26T18:50:42.170Z,3.78
2023-03-26T18:53:22.217Z,2.65
2023-03-26T18:55:50.769Z,3.10
2023-03-26T18:58:39.398Z,3.60
2023-03-26T19:01:20.004Z,3.25
2023-03-26T19:03:48.343Z,3.35
2023-03-26T19:06:16.575Z,2.83
2023-03-26T19:08:45.692Z,3.17
2023-03-26T19:11:17.072Z,3.97
2023-03-26T19:13:46.351Z,2.85
2023-03-26T19:16:35.330Z,3.13
2023-03-26T19:19:07.462Z,2.78
2023-03-26T19:21:35.697Z,2.92
2023-03-26T19:24:04.406Z,2.40
2023-03-26T19:26:31.886Z,2.55
2023-03-26T19:29:00.754Z,2.70
2023-03-26T19:31:38.773Z,3.47
2023-03-26T19:34:26.163Z,2.75
2023-03-26T19:37:01.402Z,2.50
2023-03-26T19:39:45.435Z,3.20
2023-03-26T19:42:42.932Z,2.30
2023-03-26T19:45:22.990Z,2.45
2023-03-26T19:48:03.671Z,3.15
2023-03-26T19:50:42.563Z,2.87
2023-03-26T19:53:32.501Z,2.92
2023-03-26T19:56:13.391Z,2.63
2023-03-26T19:58:41.303Z,3.05
2023-03-26T20:01:18.995Z,3.00
2023-03-26T20:03:49.645Z,3.63
2023-03-26T20:06:19.458Z,3.08
2023-03-26T20:08:50.461Z,4.20
2023-03-26T20:11:24.786Z,5.88
2023-03-26T20:13:52.697Z,3.42
2023-03-26T20:16:29.038Z,3.63
2023-03-26T20:18:57.972Z,2.97
2023-03-26T20:21:25.853Z,4.82
2023-03-26T20:23:53.700Z,5.03
2023-03-26T20:26:22.072Z,6.53
2023-03-26T20:31:22.826Z,4.95
2023-03-26T20:33:51.769Z,4.22
2023-03-26T20:36:32.763Z,2.85
2023-03-26T20:39:06.049Z,2.65
2023-03-26T20:41:34.341Z,3.93
2023-03-26T20:44:03.599Z,3.58
2023-03-26T20:46:31.957Z,3.85
2023-03-26T20:49:00.024Z,3.05
2023-03-26T20:51:28.609Z,3.30
2023-03-26T20:53:56.338Z,4.13
2023-03-26T20:56:23.991Z,2.88
2023-03-26T20:59:03.738Z,2.78
2023-03-26T21:01:38.324Z,3.28
2023-03-26T21:04:06.135Z,5.25
2023-03-26T21:06:33.458Z,3.57
2023-03-26T21:09:01.026Z,4.70
2023-03-26T21:11:53.715Z,2.78
2023-03-26T21:14:27.721Z,4.72
2023-03-26T21:16:55.182Z,4.45
2023-03-26T21:19:22.669Z,3.10
2023-03-26T21:22:11.373Z,4.05
2023-03-26T21:24:59.104Z,3.40
2023-03-26T21:27:37.844Z,2.35
2023-03-26T21:30:13.888Z,3.67
2023-03-26T21:32:41.739Z,4.60
2023-03-26T21:35:09.423Z,3.30
2023-03-26T21:37:37.541Z,2.78
2023-03-26T21:40:16.550Z,2.53
2023-03-26T21:42:45.535Z,2.65
2023-03-26T21:45:13.522Z,2.53
2023-03-26T21:47:42.025Z,2.47
2023-03-26T21:50:11.289Z,2.60
2023-03-26T21:52:46.996Z,2.05
2023-03-26T21:55:20.196Z,2.17
2023-03-26T21:58:13.048Z,2.13
2023-03-26T22:01:13.025Z,2.50
2023-03-26T22:04:07.532Z,2.42
2023-03-26T22:06:43.656Z,2.38
2023-03-26T22:09:12.794Z,2.90
2023-03-26T22:11:41.465Z,3.77
2023-03-26T22:14:08.636Z,5.20
2023-03-26T22:16:35.873Z,2.08
2023-03-26T22:19:03.120Z,4.60
2023-03-26T22:21:30.888Z,2.22
2023-03-26T22:23:57.878Z,3.23
2023-03-26T22:26:24.973Z,2.15
2023-03-26T22:28:52.190Z,1.90
2023-03-26T22:31:19.445Z,3.47
2023-03-26T22:33:47.351Z,2.30
2023-03-26T22:36:23.496Z,2.33
2023-03-26T22:38:54.261Z,2.38
2023-03-26T22:41:22.171Z,1.85
2023-03-26T22:43:52.108Z,2.10
2023-03-26T22:46:20.638Z,1.70
2023-03-26T22:48:51.481Z,3.03
2023-03-26T22:51:19.103Z,2.47
2023-03-26T22:53:46.487Z,1.73
2023-03-26T22:56:14.408Z,1.67
2023-03-26T22:58:41.378Z,2.72
2023-03-26T23:01:08.582Z,2.00
2023-03-26T23:03:37.135Z,1.90
2023-03-26T23:06:07.753Z,1.90
2023-03-26T23:08:36.457Z,2.30
2023-03-26T23:11:08.657Z,2.50
2023-03-26T23:13:36.170Z,1.60
2023-03-26T23:16:04.557Z,2.15
2023-03-26T23:18:31.811Z,2.13
2023-03-26T23:20:59.278Z,2.35
2023-03-26T23:23:28.790Z,2.65
2023-03-26T23:26:04.658Z,1.97
2023-03-26T23:28:33.391Z,1.90
2023-03-26T23:31:02.902Z,2.10
2023-03-26T23:33:32.042Z,2.47
2023-03-26T23:36:00.242Z,2.65
2023-03-26T23:38:43.688Z,2.80
2023-03-26T23:41:15.270Z,2.10
2023-03-26T23:43:53.811Z,2.10
2023-03-26T23:46:24.431Z,1.88
2023-03-26T23:48:52.302Z,1.77
2023-03-26T23:51:20.962Z,2.10
2023-03-26T23:53:49.212Z,2.05
2023-03-26T23:56:16.596Z,2.53
2023-03-26T23:58:43.656Z,2.28
